createdAt,value
2022-08-30T00:02:31.123Z,14.00
2022-08-30T00:07:33.325Z,14.10
2022-08-30T00:12:35.814Z,14.30
2022-08-30T00:17:37.988Z,14.40
2022-08-30T00:22:41.418Z,14.40
2022-08-30T00:27:45.074Z,14.50
2022-08-30T00:32:49.027Z,14.70
2022-08-30T00:37:51.427Z,14.60
2022-08-30T00:42:58.218Z,15.30
2022-08-30T00:48:01.934Z,14.80
2022-08-30T00:53:08.989Z,14.90
2022-08-30T00:58:19.824Z,15.30
2022-08-30T01:03:22.380Z,15.30
2022-08-30T01:08:25.351Z,15.40
2022-08-30T01:13:28.440Z,14.90
2022-08-30T01:18:31.990Z,15.30
2022-08-30T01:23:41.826Z,15.60
2022-08-30T01:28:48.406Z,15.80
2022-08-30T01:33:51.091Z,15.70
2022-08-30T01:38:56.779Z,15.80
2022-08-30T01:44:01.427Z,15.80
2022-08-30T01:49:10.995Z,16.10
2022-08-30T01:54:13.237Z,16.20
2022-08-30T01:59:15.423Z,16.30
2022-08-30T02:04:18.110Z,17.20
2022-08-30T02:09:20.771Z,16.50
2022-08-30T02:14:22.921Z,15.90
2022-08-30T02:19:25.109Z,16.60
2022-08-30T02:24:27.636Z,17.00
2022-08-30T02:29:30.227Z,16.90
2022-08-30T02:34:32.384Z,16.90
2022-08-30T02:39:34.514Z,16.90
2022-08-30T02:44:36.677Z,17.00
2022-08-30T02:49:38.852Z,17.30
2022-08-30T02:54:41.023Z,17.40
2022-08-30T02:59:45.291Z,17.40
2022-08-30T03:04:47.820Z,17.30
2022-08-30T03:09:49.966Z,17.40
2022-08-30T03:14:52.644Z,17.60
2022-08-30T03:19:54.806Z,17.60
2022-08-30T03:24:59.402Z,17.80
2022-08-30T03:30:01.667Z,18.10
2022-08-30T03:35:04.698Z,18.00
2022-08-30T03:40:09.386Z,18.40
2022-08-30T03:45:15.430Z,18.30
2022-08-30T03:50:17.661Z,18.60
2022-08-30T03:55:20.744Z,18.60
2022-08-30T04:00:23.038Z,18.70
2022-08-30T04:05:27.173Z,18.90
2022-08-30T04:10:30.971Z,19.00
2022-08-30T04:15:33.049Z,19.40
2022-08-30T04:20:35.230Z,19.60
2022-08-30T04:25:39.206Z,19.90
2022-08-30T04:30:43.761Z,19.50
2022-08-30T04:35:49.307Z,19.70
2022-08-30T04:40:52.057Z,19.50
2022-08-30T04:45:55.406Z,19.60
2022-08-30T04:50:57.591Z,19.70
2022-08-30T04:55:59.821Z,19.80
2022-08-30T05:01:02.141Z,20.10
2022-08-30T05:06:04.879Z,20.20
2022-08-30T05:11:08.365Z,20.70
2022-08-30T05:16:28.442Z,20.50
2022-08-30T05:21:30.619Z,20.50
2022-08-30T05:26:37.170Z,20.40
2022-08-30T05:31:39.390Z,20.60
2022-08-30T05:36:41.685Z,20.80
2022-08-30T05:41:43.808Z,21.50
2022-08-30T05:46:47.465Z,21.20
2022-08-30T05:51:49.632Z,21.40
2022-08-30T05:56:51.836Z,21.50
2022-08-30T06:01:57.070Z,21.50
2022-08-30T06:06:59.280Z,21.60
2022-08-30T06:12:01.399Z,21.80
2022-08-30T06:17:03.780Z,21.60
2022-08-30T06:22:05.898Z,21.60
2022-08-30T06:27:09.496Z,21.60
2022-08-30T06:32:11.634Z,21.30
2022-08-30T06:37:29.496Z,21.10
2022-08-30T06:42:33.696Z,20.60
2022-08-30T06:47:35.882Z,20.30
2022-08-30T06:52:38.866Z,19.70
2022-08-30T06:57:41.365Z,19.20
2022-08-30T07:02:43.735Z,18.80
2022-08-30T07:07:45.988Z,18.40
2022-08-30T07:12:48.828Z,18.20
2022-08-30T07:18:09.605Z,18.30
2022-08-30T07:23:12.595Z,17.70
2022-08-30T07:28:15.259Z,17.20
2022-08-30T07:33:17.616Z,16.70
2022-08-30T07:38:19.936Z,17.00
2022-08-30T07:43:24.980Z,15.80
2022-08-30T07:48:26.963Z,15.60
2022-08-30T07:53:29.088Z,15.50
2022-08-30T07:58:31.221Z,14.90
2022-08-30T08:03:34.042Z,15.10
2022-08-30T08:08:37.208Z,14.50
2022-08-30T08:13:52.968Z,13.90
2022-08-30T08:18:57.077Z,13.60
2022-08-30T08:23:59.197Z,13.10
2022-08-30T08:29:01.413Z,12.60
2022-08-30T08:34:05.595Z,12.80
2022-08-30T08:39:09.231Z,13.50
2022-08-30T08:44:34.947Z,12.00
2022-08-30T08:49:39.275Z,11.80
2022-08-30T08:54:59.106Z,11.60
2022-08-30T09:00:03.974Z,11.40
2022-08-30T09:05:06.580Z,11.20
2022-08-30T09:10:09.051Z,10.90
2022-08-30T09:15:25.606Z,10.20
2022-08-30T09:20:41.161Z,10.10
2022-08-30T09:26:07.343Z,10.10
2022-08-30T09:31:27.813Z,10.10
2022-08-30T09:36:39.833Z,9.30
2022-08-30T09:41:45.482Z,8.50
2022-08-30T09:46:57.149Z,8.10
2022-08-30T09:52:27.603Z,7.80
2022-08-30T09:57:43.704Z,7.80
2022-08-30T10:02:59.071Z,7.20
2022-08-30T10:08:08.803Z,7.00
2022-08-30T10:13:53.326Z,6.00
2022-08-30T10:19:19.817Z,6.20
2022-08-30T10:24:32.781Z,4.90
2022-08-30T10:29:53.962Z,4.80
2022-08-30T10:35:08.079Z,5.30
2022-08-30T10:40:41.635Z,4.40
2022-08-30T10:45:48.243Z,4.70
2022-08-30T10:50:54.386Z,4.20
2022-08-30T10:56:05.421Z,4.10
2022-08-30T11:01:28.523Z,3.60
2022-08-30T11:06:42.750Z,3.10
2022-08-30T11:12:17.875Z,2.70
2022-08-30T11:17:38.429Z,2.70
2022-08-30T11:23:19.304Z,2.20
2022-08-30T11:28:36.486Z,3.00
2022-08-30T11:33:49.125Z,2.30
2022-08-30T11:38:51.477Z,1.50
2022-08-30T11:43:56.039Z,1.00
2022-08-30T11:49:18.596Z,1.00
2022-08-30T11:54:26.486Z,1.00
2022-08-30T11:59:47.447Z,1.00
2022-08-30T12:04:49.599Z,1.00
2022-08-30T12:09:53.150Z,1.00
2022-08-30T12:14:57.591Z,1.00
2022-08-30T12:20:00.563Z,1.00
2022-08-30T12:25:18.911Z,1.00
2022-08-30T12:30:27.863Z,1.00
2022-08-30T12:35:30.984Z,1.00
2022-08-30T12:40:37.384Z,1.00
2022-08-30T12:45:46.108Z,1.00
2022-08-30T12:51:00.911Z,1.00
2022-08-30T12:56:07.925Z,1.00
2022-08-30T13:01:31.208Z,1.00
2022-08-30T13:06:58.291Z,1.00
2022-08-30T13:12:03.687Z,1.00
2022-08-30T13:17:21.335Z,1.00
2022-08-30T13:22:32.230Z,1.00
2022-08-30T13:27:36.766Z,1.00
2022-08-30T13:32:39.432Z,1.00
2022-08-30T13:37:49.868Z,1.00
2022-08-30T13:42:53.135Z,1.00
2022-08-30T13:47:55.670Z,1.00
2022-08-30T13:52:58.070Z,1.00
2022-08-30T13:58:00.485Z,1.00
2022-08-30T14:03:03.040Z,1.00
2022-08-30T14:08:06.714Z,1.00
2022-08-30T14:13:12.029Z,1.00
2022-08-30T14:18:18.049Z,1.00
2022-08-30T14:23:20.668Z,1.00
2022-08-30T14:28:23.419Z,1.00
2022-08-30T14:33:26.336Z,1.00
2022-08-30T14:38:28.771Z,1.00
2022-08-30T14:43:32.158Z,1.00
2022-08-30T14:48:36.118Z,1.00
2022-08-30T14:53:38.247Z,1.00
2022-08-30T14:58:40.793Z,1.00
2022-08-30T15:03:43.367Z,1.00
2022-08-30T15:08:47.691Z,1.00
2022-08-30T15:13:52.865Z,1.00
2022-08-30T15:18:57.923Z,1.00
2022-08-30T15:24:02.090Z,1.00
2022-08-30T15:29:04.589Z,1.00
2022-08-30T15:34:12.227Z,1.00
2022-08-30T15:39:15.724Z,1.00
2022-08-30T15:44:18.006Z,1.00
2022-08-30T15:49:23.348Z,1.00
2022-08-30T15:54:25.956Z,1.00
2022-08-30T15:59:29.632Z,1.00
2022-08-30T16:04:31.783Z,1.00
2022-08-30T16:09:36.449Z,1.00
2022-08-30T16:14:40.228Z,1.00
2022-08-30T16:19:42.482Z,1.00
2022-08-30T16:24:46.750Z,1.00
2022-08-30T16:29:50.029Z,1.00
2022-08-30T16:34:52.459Z,1.00
2022-08-30T16:39:54.645Z,1.00
2022-08-30T16:44:57.633Z,1.00
2022-08-30T16:50:00.744Z,1.00
2022-08-30T16:55:03.995Z,1.00
2022-08-30T17:00:13.417Z,1.00
2022-08-30T17:05:15.987Z,1.00
2022-08-30T17:10:22.907Z,1.00
2022-08-30T17:15:27.069Z,1.00
2022-08-30T17:20:33.651Z,1.00
2022-08-30T17:25:37.357Z,1.00
2022-08-30T17:30:39.912Z,1.00
2022-08-30T17:35:42.340Z,1.00
2022-08-30T17:40:45.222Z,1.00
2022-08-30T17:45:47.486Z,1.00
2022-08-30T17:50:56.236Z,1.00
2022-08-30T17:55:58.951Z,1.00
2022-08-30T18:01:12.065Z,1.00
2022-08-30T18:06:14.868Z,1.00
2022-08-30T18:11:17.019Z,1.00
2022-08-30T18:16:21.694Z,1.00
2022-08-30T18:21:43.232Z,1.00
2022-08-30T18:26:46.490Z,1.00
2022-08-30T18:31:49.155Z,1.00
2022-08-30T18:36:51.334Z,1.00
2022-08-30T18:41:55.617Z,1.00
2022-08-30T18:47:01.436Z,1.00
2022-08-30T18:52:06.533Z,1.00
2022-08-30T18:57:09.933Z,1.30
2022-08-30T19:02:14.704Z,1.50
2022-08-30T19:07:18.654Z,1.40
2022-08-30T19:12:21.602Z,1.90
2022-08-30T19:17:26.448Z,2.00
2022-08-30T19:22:39.839Z,2.80
2022-08-30T19:27:51.391Z,2.80
2022-08-30T19:32:53.712Z,2.50
2022-08-30T19:37:55.765Z,2.60
2022-08-30T19:42:58.276Z,2.30
2022-08-30T19:48:01.174Z,2.80
2022-08-30T19:53:03.904Z,3.20
2022-08-30T19:58:06.743Z,3.20
2022-08-30T20:03:08.863Z,3.70
2022-08-30T20:08:11.886Z,3.70
2022-08-30T20:13:14.501Z,3.30
2022-08-30T20:18:16.662Z,4.00
2022-08-30T20:23:21.528Z,4.10
2022-08-30T20:28:25.806Z,4.40
2022-08-30T20:33:28.016Z,4.60
2022-08-30T20:38:31.130Z,4.60
2022-08-30T20:43:33.238Z,4.80
2022-08-30T20:48:35.776Z,4.90
2022-08-30T20:53:37.998Z,5.10
2022-08-30T20:58:40.149Z,4.90
2022-08-30T21:03:44.137Z,5.30
2022-08-30T21:08:46.323Z,5.60
2022-08-30T21:13:48.523Z,5.70
2022-08-30T21:18:50.787Z,6.00
2022-08-30T21:23:57.053Z,6.20
2022-08-30T21:28:59.383Z,6.30
2022-08-30T21:34:01.572Z,6.50
2022-08-30T21:39:06.142Z,7.10
2022-08-30T21:44:15.473Z,7.10
2022-08-30T21:49:20.452Z,7.40
2022-08-30T21:54:24.328Z,7.40
2022-08-30T21:59:28.327Z,7.70
2022-08-30T22:04:30.719Z,8.00
2022-08-30T22:09:32.860Z,8.10
2022-08-30T22:14:35.079Z,7.90
2022-08-30T22:19:37.183Z,8.30
2022-08-30T22:24:40.333Z,8.50
2022-08-30T22:29:42.566Z,8.50
2022-08-30T22:34:45.848Z,9.50
2022-08-30T22:39:51.589Z,8.60
2022-08-30T22:44:53.688Z,8.90
2022-08-30T22:49:56.315Z,8.80
2022-08-30T22:54:58.301Z,9.00
2022-08-30T23:00:07.534Z,8.90
2022-08-30T23:05:10.437Z,9.40
2022-08-30T23:10:14.277Z,9.20
2022-08-30T23:15:16.483Z,9.70
2022-08-30T23:20:18.780Z,9.80
2022-08-30T23:25:41.747Z,10.10
2022-08-30T23:31:05.969Z,10.00
2022-08-30T23:36:31.664Z,10.30
2022-08-30T23:41:52.183Z,10.10
2022-08-30T23:47:12.873Z,10.70
2022-08-30T23:52:33.482Z,11.00
2022-08-30T23:57:54.544Z,11.20
